sensor_id;sensor_type;location;lat;lon;timestamp;temperature;humidity
19516;DHT22;9901;47.448;7.692;2023-03-05T04:20:55;1.80;99.90
19516;DHT22;9901;47.448;7.692;2023-03-05T04:23:20;1.80;99.90
19516;DHT22;9901;47.448;7.692;2023-03-05T04:25:46;1.80;99.90
19516;DHT22;9901;47.448;7.692;2023-03-05T04:28:21;1.60;99.90
19516;DHT22;9901;47.448;7.692;2023-03-05T04:30:49;1.70;99.90
19516;DHT22;9901;47.448;7.692;2023-03-05T04:33:15;1.70;99.90
19516;DHT22;9901;47.448;7.692;2023-03-05T04:35:42;1.80;99.90
19516;DHT22;9901;47.448;7.692;2023-03-05T04:38:10;1.60;99.90
19516;DHT22;9901;47.448;7.692;2023-03-05T04:40:36;1.50;99.90
19516;DHT22;9901;47.448;7.692;2023-03-05T04:43:02;1.50;99.90
19516;DHT22;9901;47.448;7.692;2023-03-05T04:45:28;1.50;99.90
19516;DHT22;9901;47.448;7.692;2023-03-05T04:48:01;1.50;99.90
19516;DHT22;9901;47.448;7.692;2023-03-05T04:50:49;1.50;99.90
19516;DHT22;9901;47.448;7.692;2023-03-05T04:53:14;1.50;99.90
19516;DHT22;9901;47.448;7.692;2023-03-05T04:55:44;1.50;99.90
19516;DHT22;9901;47.448;7.692;2023-03-05T04:58:15;1.60;99.90
19516;DHT22;9901;47.448;7.692;2023-03-05T05:00:41;1.60;99.90
19516;DHT22;9901;47.448;7.692;2023-03-05T05:03:06;1.70;99.90
19516;DHT22;9901;47.448;7.692;2023-03-05T05:05:35;1.70;99.90
19516;DHT22;9901;47.448;7.692;2023-03-05T05:08:02;1.70;99.90
19516;DHT22;9901;47.448;7.692;2023-03-05T05:10:27;1.70;99.90
19516;DHT22;9901;47.448;7.692;2023-03-05T05:13:18;1.60;99.90
19516;DHT22;9901;47.448;7.692;2023-03-05T05:15:52;1.50;99.90
19516;DHT22;9901;47.448;7.692;2023-03-05T05:18:17;1.40;99.90
19516;DHT22;9901;47.448;7.692;2023-03-05T05:20:43;1.40;99.90
19516;DHT22;9901;47.448;7.692;2023-03-05T05:23:09;1.20;99.90
19516;DHT22;9901;47.448;7.692;2023-03-05T05:25:34;1.30;99.90
19516;DHT22;9901;47.448;7.692;2023-03-05T05:28:00;1.20;99.90
19516;DHT22;9901;47.448;7.692;2023-03-05T05:30:26;1.20;99.90
19516;DHT22;9901;47.448;7.692;2023-03-05T05:32:52;1.10;99.90
19516;DHT22;9901;47.448;7.692;2023-03-05T05:35:18;1.00;99.90
19516;DHT22;9901;47.448;7.692;2023-03-05T05:37:49;1.10;99.90
19516;DHT22;9901;47.448;7.692;2023-03-05T05:40:20;1.10;99.90
19516;DHT22;9901;47.448;7.692;2023-03-05T05:42:46;1.00;99.90
19516;DHT22;9901;47.448;7.692;2023-03-05T05:45:12;0.90;99.90
19516;DHT22;9901;47.448;7.692;2023-03-05T05:47:59;0.90;99.90
19516;DHT22;9901;47.448;7.692;2023-03-05T05:50:27;0.80;99.90
19516;DHT22;9901;47.448;7.692;2023-03-05T05:52:53;0.70;99.90
19516;DHT22;9901;47.448;7.692;2023-03-05T05:55:21;0.80;99.90
19516;DHT22;9901;47.448;7.692;2023-03-05T05:57:47;0.70;99.90
19516;DHT22;9901;47.448;7.692;2023-03-05T06:00:13;0.90;99.90
19516;DHT22;9901;47.448;7.692;2023-03-05T06:02:49;0.70;99.90
19516;DHT22;9901;47.448;7.692;2023-03-05T06:05:22;0.70;99.90
19516;DHT22;9901;47.448;7.692;2023-03-05T06:07:48;0.70;99.90
19516;DHT22;9901;47.448;7.692;2023-03-05T06:10:13;0.70;99.90
19516;DHT22;9901;47.448;7.692;2023-03-05T06:12:42;0.60;99.90
19516;DHT22;9901;47.448;7.692;2023-03-05T06:15:08;0.50;99.90
19516;DHT22;9901;47.448;7.692;2023-03-05T06:17:49;0.50;99.90
19516;DHT22;9901;47.448;7.692;2023-03-05T06:20:17;0.50;99.90
19516;DHT22;9901;47.448;7.692;2023-03-05T06:22:43;0.50;99.90
19516;DHT22;9901;47.448;7.692;2023-03-05T06:25:11;0.50;99.90
19516;DHT22;9901;47.448;7.692;2023-03-05T06:27:42;0.50;99.90
19516;DHT22;9901;47.448;7.692;2023-03-05T06:30:17;0.60;99.90
19516;DHT22;9901;47.448;7.692;2023-03-05T06:32:43;0.50;99.90
19516;DHT22;9901;47.448;7.692;2023-03-05T06:35:09;0.60;99.90
19516;DHT22;9901;47.448;7.692;2023-03-05T06:37:39;0.60;99.90
19516;DHT22;9901;47.448;7.692;2023-03-05T06:40:08;0.60;99.90
19516;DHT22;9901;47.448;7.692;2023-03-05T06:42:34;0.60;99.90
19516;DHT22;9901;47.448;7.692;2023-03-05T06:44:59;0.60;99.90
19516;DHT22;9901;47.448;7.692;2023-03-05T06:47:27;0.60;99.90
19516;DHT22;9901;47.448;7.692;2023-03-05T06:50:00;0.70;99.90
19516;DHT22;9901;47.448;7.692;2023-03-05T06:52:26;0.70;99.90
19516;DHT22;9901;47.448;7.692;2023-03-05T06:55:18;0.80;99.90
19516;DHT22;9901;47.448;7.692;2023-03-05T06:57:44;0.80;99.90
19516;DHT22;9901;47.448;7.692;2023-03-05T07:00:12;0.90;99.90
19516;DHT22;9901;47.448;7.692;2023-03-05T07:02:38;1.00;99.90
19516;DHT22;9901;47.448;7.692;2023-03-05T07:05:05;1.00;99.90
19516;DHT22;9901;47.448;7.692;2023-03-05T07:07:45;1.00;99.90
19516;DHT22;9901;47.448;7.692;2023-03-05T07:10:11;1.00;99.90
19516;DHT22;9901;47.448;7.692;2023-03-05T07:12:46;1.10;99.90
19516;DHT22;9901;47.448;7.692;2023-03-05T07:15:11;1.40;99.90
19516;DHT22;9901;47.448;7.692;2023-03-05T07:17:37;1.20;99.90
19516;DHT22;9901;47.448;7.692;2023-03-05T07:20:03;1.20;99.90
19516;DHT22;9901;47.448;7.692;2023-03-05T07:22:30;1.30;99.90
19516;DHT22;9901;47.448;7.692;2023-03-05T07:24:56;1.40;99.90
19516;DHT22;9901;47.448;7.692;2023-03-05T07:27:21;1.50;99.90
19516;DHT22;9901;47.448;7.692;2023-03-05T07:29:50;1.40;99.90
19516;DHT22;9901;47.448;7.692;2023-03-05T07:32:15;1.40;99.90
19516;DHT22;9901;47.448;7.692;2023-03-05T07:34:43;1.40;99.90
19516;DHT22;9901;47.448;7.692;2023-03-05T07:37:09;1.50;99.90
19516;DHT22;9901;47.448;7.692;2023-03-05T07:39:46;1.60;99.90
19516;DHT22;9901;47.448;7.692;2023-03-05T07:42:12;1.60;99.90
19516;DHT22;9901;47.448;7.692;2023-03-05T07:44:37;1.70;99.90
19516;DHT22;9901;47.448;7.692;2023-03-05T07:47:16;1.70;99.90
19516;DHT22;9901;47.448;7.692;2023-03-05T07:49:45;1.70;99.90
19516;DHT22;9901;47.448;7.692;2023-03-05T07:52:11;1.80;99.90
19516;DHT22;9901;47.448;7.692;2023-03-05T07:54:39;1.90;99.90
19516;DHT22;9901;47.448;7.692;2023-03-05T08:00:05;2.00;99.90
19516;DHT22;9901;47.448;7.692;2023-03-05T08:02:31;2.20;99.90
19516;DHT22;9901;47.448;7.692;2023-03-05T08:04:59;2.20;99.90
19516;DHT22;9901;47.448;7.692;2023-03-05T08:07:25;2.30;99.90
19516;DHT22;9901;47.448;7.692;2023-03-05T08:09:53;2.50;99.90
19516;DHT22;9901;47.448;7.692;2023-03-05T08:12:37;2.60;99.90
19516;DHT22;9901;47.448;7.692;2023-03-05T08:15:02;2.60;99.90
19516;DHT22;9901;47.448;7.692;2023-03-05T08:17:28;2.80;99.90
19516;DHT22;9901;47.448;7.692;2023-03-05T08:19:54;2.80;99.90
19516;DHT22;9901;47.448;7.692;2023-03-05T08:22:22;2.90;99.90
19516;DHT22;9901;47.448;7.692;2023-03-05T08:24:48;3.00;99.90
19516;DHT22;9901;47.448;7.692;2023-03-05T08:27:14;3.00;99.90
19516;DHT22;9901;47.448;7.692;2023-03-05T08:29:47;3.20;99.90
19516;DHT22;9901;47.448;7.692;2023-03-05T08:32:13;3.50;99.90
19516;DHT22;9901;47.448;7.692;2023-03-05T08:34:38;3.70;99.90
19516;DHT22;9901;47.448;7.692;2023-03-05T08:37:04;3.80;99.90
19516;DHT22;9901;47.448;7.692;2023-03-05T08:39:32;3.90;99.90
19516;DHT22;9901;47.448;7.692;2023-03-05T08:41:57;3.90;99.90
19516;DHT22;9901;47.448;7.692;2023-03-05T08:44:24;4.00;99.90
19516;DHT22;9901;47.448;7.692;2023-03-05T08:47:10;4.10;99.90
19516;DHT22;9901;47.448;7.692;2023-03-05T08:49:38;4.20;99.90
19516;DHT22;9901;47.448;7.692;2023-03-05T08:52:04;4.40;99.90
19516;DHT22;9901;47.448;7.692;2023-03-05T08:54:30;4.50;99.90
19516;DHT22;9901;47.448;7.692;2023-03-05T08:56:56;4.70;99.90
19516;DHT22;9901;47.448;7.692;2023-03-05T08:59:21;4.80;99.90
19516;DHT22;9901;47.448;7.692;2023-03-05T09:01:50;4.90;99.90
19516;DHT22;9901;47.448;7.692;2023-03-05T09:04:16;5.00;99.90
19516;DHT22;9901;47.448;7.692;2023-03-05T09:06:44;5.20;99.90
19516;DHT22;9901;47.448;7.692;2023-03-05T09:09:25;5.30;99.90
19516;DHT22;9901;47.448;7.692;2023-03-05T09:11:56;5.50;99.90
19516;DHT22;9901;47.448;7.692;2023-03-05T09:14:39;5.60;99.90
19516;DHT22;9901;47.448;7.692;2023-03-05T09:17:04;5.70;99.90
19516;DHT22;9901;47.448;7.692;2023-03-05T09:19:40;5.90;99.90
19516;DHT22;9901;47.448;7.692;2023-03-05T09:22:08;6.10;99.90
19516;DHT22;9901;47.448;7.692;2023-03-05T09:24:40;6.30;99.90
19516;DHT22;9901;47.448;7.692;2023-03-05T09:27:07;6.80;99.90
19516;DHT22;9901;47.448;7.692;2023-03-05T09:29:33;7.00;99.90
19516;DHT22;9901;47.448;7.692;2023-03-05T09:31:59;7.20;99.90
19516;DHT22;9901;47.448;7.692;2023-03-05T09:34:24;7.30;99.90
19516;DHT22;9901;47.448;7.692;2023-03-05T09:36:50;7.40;99.90
19516;DHT22;9901;47.448;7.692;2023-03-05T09:39:28;7.60;99.90
19516;DHT22;9901;47.448;7.692;2023-03-05T09:48:16;8.10;99.90
19516;DHT22;9901;47.448;7.692;2023-03-05T09:56:45;8.80;99.90
19516;DHT22;9901;47.448;7.692;2023-03-05T09:59:48;9.10;99.90
19516;DHT22;9901;47.448;7.692;2023-03-05T10:02:36;9.10;99.90
19516;DHT22;9901;47.448;7.692;2023-03-05T10:05:32;9.30;99.90
19516;DHT22;9901;47.448;7.692;2023-03-05T10:10:43;10.10;99.90
19516;DHT22;9901;47.448;7.692;2023-03-05T10:13:36;10.10;99.90
19516;DHT22;9901;47.448;7.692;2023-03-05T10:35:22;10.80;99.90
19516;DHT22;9901;47.448;7.692;2023-03-05T10:57:48;9.10;99.90
19516;DHT22;9901;47.448;7.692;2023-03-05T11:00:28;8.80;99.90
19516;DHT22;9901;47.448;7.692;2023-03-05T11:03:17;8.50;99.90
19516;DHT22;9901;47.448;7.692;2023-03-05T11:13:17;8.00;99.90
19516;DHT22;9901;47.448;7.692;2023-03-05T11:16:18;8.00;99.90
19516;DHT22;9901;47.448;7.692;2023-03-05T11:18:47;7.90;99.90
19516;DHT22;9901;47.448;7.692;2023-03-05T11:31:31;10.20;99.90
19516;DHT22;9901;47.448;7.692;2023-03-05T11:34:09;10.90;99.90
19516;DHT22;9901;47.448;7.692;2023-03-05T13:38:22;15.10;99.90
19516;DHT22;9901;47.448;7.692;2023-03-05T13:43:50;15.00;99.90
19516;DHT22;9901;47.448;7.692;2023-03-05T13:48:48;14.50;99.90
19516;DHT22;9901;47.448;7.692;2023-03-05T13:51:19;13.90;99.90
19516;DHT22;9901;47.448;7.692;2023-03-05T13:54:07;13.00;99.90
19516;DHT22;9901;47.448;7.692;2023-03-05T13:56:34;12.30;99.90
19516;DHT22;9901;47.448;7.692;2023-03-05T13:59:00;11.60;99.90
19516;DHT22;9901;47.448;7.692;2023-03-05T14:01:46;11.30;99.90
19516;DHT22;9901;47.448;7.692;2023-03-05T14:04:17;11.40;99.90
19516;DHT22;9901;47.448;7.692;2023-03-05T14:06:51;11.60;99.90
19516;DHT22;9901;47.448;7.692;2023-03-05T14:09:21;11.90;99.90
19516;DHT22;9901;47.448;7.692;2023-03-05T14:17:42;14.60;99.90
19516;DHT22;9901;47.448;7.692;2023-03-05T14:20:29;15.30;99.90
19516;DHT22;9901;47.448;7.692;2023-03-05T14:22:58;15.60;99.90
19516;DHT22;9901;47.448;7.692;2023-03-05T14:29:14;14.90;99.90
19516;DHT22;9901;47.448;7.692;2023-03-05T14:32:38;15.60;99.90
19516;DHT22;9901;47.448;7.692;2023-03-05T14:35:05;14.50;99.90
19516;DHT22;9901;47.448;7.692;2023-03-05T14:37:34;13.70;99.90
19516;DHT22;9901;47.448;7.692;2023-03-05T14:43:02;12.60;99.90
19516;DHT22;9901;47.448;7.692;2023-03-05T14:45:36;12.30;99.90
19516;DHT22;9901;47.448;7.692;2023-03-05T14:48:04;12.10;99.90
19516;DHT22;9901;47.448;7.692;2023-03-05T14:50:40;11.90;99.90
19516;DHT22;9901;47.448;7.692;2023-03-05T14:53:21;11.90;99.90
19516;DHT22;9901;47.448;7.692;2023-03-05T14:55:50;12.40;99.90
19516;DHT22;9901;47.448;7.692;2023-03-05T14:58:28;12.60;99.90
19516;DHT22;9901;47.448;7.692;2023-03-05T15:00:56;12.30;99.90
19516;DHT22;9901;47.448;7.692;2023-03-05T15:03:34;11.80;99.90
19516;DHT22;9901;47.448;7.692;2023-03-05T15:06:12;11.60;99.90
19516;DHT22;9901;47.448;7.692;2023-03-05T15:09:05;11.40;99.90
19516;DHT22;9901;47.448;7.692;2023-03-05T15:12:07;11.50;99.90
19516;DHT22;9901;47.448;7.692;2023-03-05T15:18:03;12.40;99.90
19516;DHT22;9901;47.448;7.692;2023-03-05T15:20:29;12.10;99.90
19516;DHT22;9901;47.448;7.692;2023-03-05T15:22:55;12.50;99.90
19516;DHT22;9901;47.448;7.692;2023-03-05T15:25:22;12.40;99.90
19516;DHT22;9901;47.448;7.692;2023-03-05T15:27:51;12.70;99.90
19516;DHT22;9901;47.448;7.692;2023-03-05T15:30:27;12.60;99.90
19516;DHT22;9901;47.448;7.692;2023-03-05T15:33:22;12.00;99.90
19516;DHT22;9901;47.448;7.692;2023-03-05T16:02:03;9.70;99.90
19516;DHT22;9901;47.448;7.692;2023-03-05T16:04:35;9.40;99.90
19516;DHT22;9901;47.448;7.692;2023-03-05T16:07:02;9.50;99.90
19516;DHT22;9901;47.448;7.692;2023-03-05T16:09:32;9.30;99.90
19516;DHT22;9901;47.448;7.692;2023-03-05T16:12:21;9.20;99.90
19516;DHT22;9901;47.448;7.692;2023-03-05T16:14:49;9.10;99.90
19516;DHT22;9901;47.448;7.692;2023-03-05T16:17:18;9.00;99.90
19516;DHT22;9901;47.448;7.692;2023-03-05T16:19:47;8.90;99.90
19516;DHT22;9901;47.448;7.692;2023-03-05T16:22:20;9.00;99.90
19516;DHT22;9901;47.448;7.692;2023-03-05T16:28:16;8.80;99.90
19516;DHT22;9901;47.448;7.692;2023-03-05T16:30:51;8.90;99.90
19516;DHT22;9901;47.448;7.692;2023-03-05T16:33:20;8.60;99.90
19516;DHT22;9901;47.448;7.692;2023-03-05T16:39:11;8.50;99.90
19516;DHT22;9901;47.448;7.692;2023-03-05T16:41:45;8.40;99.90
19516;DHT22;9901;47.448;7.692;2023-03-05T17:31:02;7.00;99.90
19516;DHT22;9901;47.448;7.692;2023-03-05T17:46:58;6.60;99.90
19516;DHT22;9901;47.448;7.692;2023-03-05T17:49:49;6.50;99.90
19516;DHT22;9901;47.448;7.692;2023-03-05T17:53:26;6.60;99.90
19516;DHT22;9901;47.448;7.692;2023-03-05T18:06:50;6.20;99.90
19516;DHT22;9901;47.448;7.692;2023-03-05T18:09:36;6.20;99.90
19516;DHT22;9901;47.448;7.692;2023-03-05T18:12:07;6.10;99.90
19516;DHT22;9901;47.448;7.692;2023-03-05T18:14:42;6.00;99.90
19516;DHT22;9901;47.448;7.692;2023-03-05T18:17:08;5.90;99.90
19516;DHT22;9901;47.448;7.692;2023-03-05T18:19:56;5.60;99.90
19516;DHT22;9901;47.448;7.692;2023-03-05T18:22:22;5.50;99.90
19516;DHT22;9901;47.448;7.692;2023-03-05T18:24:48;5.50;99.90
19516;DHT22;9901;47.448;7.692;2023-03-05T18:27:13;5.40;99.90
19516;DHT22;9901;47.448;7.692;2023-03-05T18:29:39;5.20;99.90
19516;DHT22;9901;47.448;7.692;2023-03-05T18:32:05;5.10;99.90
19516;DHT22;9901;47.448;7.692;2023-03-05T18:34:31;5.00;99.90
19516;DHT22;9901;47.448;7.692;2023-03-05T18:36:56;5.00;99.90
19516;DHT22;9901;47.448;7.692;2023-03-05T18:39:24;4.80;99.90
19516;DHT22;9901;47.448;7.692;2023-03-05T18:41:50;4.90;99.90
19516;DHT22;9901;47.448;7.692;2023-03-05T18:44:16;4.90;99.90
19516;DHT22;9901;47.448;7.692;2023-03-05T18:46:41;4.90;99.90
19516;DHT22;9901;47.448;7.692;2023-03-05T18:49:07;5.00;99.90
19516;DHT22;9901;47.448;7.692;2023-03-05T18:51:38;4.90;99.90
19516;DHT22;9901;47.448;7.692;2023-03-05T18:54:04;4.80;99.90
19516;DHT22;9901;47.448;7.692;2023-03-05T18:56:30;4.80;99.90
19516;DHT22;9901;47.448;7.692;2023-03-05T18:58:55;4.90;99.90
19516;DHT22;9901;47.448;7.692;2023-03-05T19:01:21;4.80;99.90
19516;DHT22;9901;47.448;7.692;2023-03-05T19:03:52;4.80;99.90
19516;DHT22;9901;47.448;7.692;2023-03-05T19:06:18;4.70;99.90
19516;DHT22;9901;47.448;7.692;2023-03-05T19:08:47;4.70;99.90
19516;DHT22;9901;47.448;7.692;2023-03-05T19:11:27;4.60;99.90
19516;DHT22;9901;47.448;7.692;2023-03-05T19:13:53;4.60;99.90
19516;DHT22;9901;47.448;7.692;2023-03-05T19:16:28;4.60;99.90
19516;DHT22;9901;47.448;7.692;2023-03-05T19:19:18;4.50;99.90
19516;DHT22;9901;47.448;7.692;2023-03-05T19:21:58;4.50;99.90
19516;DHT22;9901;47.448;7.692;2023-03-05T19:24:26;4.50;99.90
19516;DHT22;9901;47.448;7.692;2023-03-05T19:26:52;4.40;99.90
19516;DHT22;9901;47.448;7.692;2023-03-05T19:29:24;4.40;99.90
19516;DHT22;9901;47.448;7.692;2023-03-05T19:31:51;4.40;99.90
19516;DHT22;9901;47.448;7.692;2023-03-05T19:34:17;4.40;99.90
19516;DHT22;9901;47.448;7.692;2023-03-05T19:36:43;4.30;99.90
19516;DHT22;9901;47.448;7.692;2023-03-05T19:39:09;4.30;99.90
19516;DHT22;9901;47.448;7.692;2023-03-05T19:41:35;4.20;99.90
19516;DHT22;9901;47.448;7.692;2023-03-05T19:44:01;4.20;99.90
19516;DHT22;9901;47.448;7.692;2023-03-05T19:46:27;4.20;99.90
19516;DHT22;9901;47.448;7.692;2023-03-05T19:48:52;4.20;99.90
19516;DHT22;9901;47.448;7.692;2023-03-05T19:51:21;4.20;99.90
19516;DHT22;9901;47.448;7.692;2023-03-05T19:53:51;4.20;99.90
19516;DHT22;9901;47.448;7.692;2023-03-05T19:56:20;4.30;99.90
19516;DHT22;9901;47.448;7.692;2023-03-05T19:58:46;4.20;99.90
19516;DHT22;9901;47.448;7.692;2023-03-05T20:01:26;4.10;99.90
19516;DHT22;9901;47.448;7.692;2023-03-05T20:03:53;4.10;99.90
19516;DHT22;9901;47.448;7.692;2023-03-05T20:06:20;4.00;99.90
19516;DHT22;9901;47.448;7.692;2023-03-05T20:08:46;4.00;99.90
19516;DHT22;9901;47.448;7.692;2023-03-05T20:11:14;3.90;99.90
19516;DHT22;9901;47.448;7.692;2023-03-05T20:13:40;3.80;99.90
19516;DHT22;9901;47.448;7.692;2023-03-05T20:16:26;3.70;99.90
19516;DHT22;9901;47.448;7.692;2023-03-05T20:18:55;3.70;99.90
19516;DHT22;9901;47.448;7.692;2023-03-05T20:21:25;3.70;99.90
19516;DHT22;9901;47.448;7.692;2023-03-05T20:23:55;3.80;99.90
19516;DHT22;9901;47.448;7.692;2023-03-05T20:26:22;3.60;99.90
19516;DHT22;9901;47.448;7.692;2023-03-05T20:28:51;3.50;99.90
19516;DHT22;9901;47.448;7.692;2023-03-05T20:31:18;3.50;99.90
19516;DHT22;9901;47.448;7.692;2023-03-05T20:33:47;3.50;99.90
19516;DHT22;9901;47.448;7.692;2023-03-05T20:36:16;3.30;99.90
19516;DHT22;9901;47.448;7.692;2023-03-05T20:38:41;3.50;99.90
19516;DHT22;9901;47.448;7.692;2023-03-05T20:41:11;3.40;99.90
19516;DHT22;9901;47.448;7.692;2023-03-05T20:43:41;3.40;99.90
19516;DHT22;9901;47.448;7.692;2023-03-05T20:46:22;3.30;99.90
19516;DHT22;9901;47.448;7.692;2023-03-05T20:48:49;3.40;99.90
19516;DHT22;9901;47.448;7.692;2023-03-05T20:51:18;3.20;99.90
19516;DHT22;9901;47.448;7.692;2023-03-05T20:53:48;3.30;99.90
19516;DHT22;9901;47.448;7.692;2023-03-05T20:56:17;3.10;99.90
19516;DHT22;9901;47.448;7.692;2023-03-05T20:58:50;3.10;99.90
19516;DHT22;9901;47.448;7.692;2023-03-05T21:01:18;3.10;99.90
19516;DHT22;9901;47.448;7.692;2023-03-05T21:03:43;3.10;99.90
19516;DHT22;9901;47.448;7.692;2023-03-05T21:06:09;3.00;99.90
19516;DHT22;9901;47.448;7.692;2023-03-05T21:08:35;3.10;99.90
19516;DHT22;9901;47.448;7.692;2023-03-05T21:11:05;3.00;99.90
19516;DHT22;9901;47.448;7.692;2023-03-05T21:13:31;3.00;99.90
19516;DHT22;9901;47.448;7.692;2023-03-05T21:15:57;3.00;99.90
19516;DHT22;9901;47.448;7.692;2023-03-05T21:18:23;2.90;99.90
19516;DHT22;9901;47.448;7.692;2023-03-05T21:20:49;3.00;99.90
19516;DHT22;9901;47.448;7.692;2023-03-05T21:23:14;2.90;99.90
19516;DHT22;9901;47.448;7.692;2023-03-05T21:25:43;2.80;99.90
19516;DHT22;9901;47.448;7.692;2023-03-05T21:28:13;2.70;99.90
19516;DHT22;9901;47.448;7.692;2023-03-05T21:30:48;2.60;99.90
19516;DHT22;9901;47.448;7.692;2023-03-05T21:33:18;2.60;99.90
19516;DHT22;9901;47.448;7.692;2023-03-05T21:35:46;2.60;99.90
19516;DHT22;9901;47.448;7.692;2023-03-05T21:38:12;2.70;99.90
19516;DHT22;9901;47.448;7.692;2023-03-05T21:40:45;2.60;99.90
19516;DHT22;9901;47.448;7.692;2023-03-05T21:43:15;2.70;99.90
19516;DHT22;9901;47.448;7.692;2023-03-05T21:45:42;2.60;99.90
19516;DHT22;9901;47.448;7.692;2023-03-05T21:48:12;2.50;99.90
19516;DHT22;9901;47.448;7.692;2023-03-05T21:50:39;2.40;99.90
19516;DHT22;9901;47.448;7.692;2023-03-05T21:53:05;2.30;99.90
19516;DHT22;9901;47.448;7.692;2023-03-05T21:58:55;2.40;99.90
19516;DHT22;9901;47.448;7.692;2023-03-05T22:01:31;2.40;99.90
19516;DHT22;9901;47.448;7.692;2023-03-05T22:03:56;2.30;99.90
19516;DHT22;9901;47.448;7.692;2023-03-05T22:06:22;2.30;99.90
19516;DHT22;9901;47.448;7.692;2023-03-05T22:09:08;2.30;99.90
19516;DHT22;9901;47.448;7.692;2023-03-05T22:11:33;2.30;99.90
19516;DHT22;9901;47.448;7.692;2023-03-05T22:13:59;2.30;99.90
19516;DHT22;9901;47.448;7.692;2023-03-05T22:16:57;2.20;99.90
19516;DHT22;9901;47.448;7.692;2023-03-05T22:19:33;2.20;99.90
19516;DHT22;9901;47.448;7.692;2023-03-05T22:21:59;2.10;99.90
19516;DHT22;9901;47.448;7.692;2023-03-05T22:24:24;2.00;99.90
19516;DHT22;9901;47.448;7.692;2023-03-05T22:26:51;1.90;99.90
19516;DHT22;9901;47.448;7.692;2023-03-05T22:29:19;1.90;99.90
19516;DHT22;9901;47.448;7.692;2023-03-05T22:31:47;1.90;99.90
19516;DHT22;9901;47.448;7.692;2023-03-05T22:34:13;1.90;99.90
19516;DHT22;9901;47.448;7.692;2023-03-05T22:36:40;2.00;99.90
19516;DHT22;9901;47.448;7.692;2023-03-05T22:39:06;2.00;99.90
19516;DHT22;9901;47.448;7.692;2023-03-05T22:41:32;2.10;99.90
19516;DHT22;9901;47.448;7.692;2023-03-05T22:43:57;2.10;99.90
19516;DHT22;9901;47.448;7.692;2023-03-05T22:46:24;2.10;99.90
19516;DHT22;9901;47.448;7.692;2023-03-05T22:49:12;2.00;99.90
19516;DHT22;9901;47.448;7.692;2023-03-05T22:51:40;1.90;99.90
19516;DHT22;9901;47.448;7.692;2023-03-05T22:54:22;1.80;99.90
19516;DHT22;9901;47.448;7.692;2023-03-05T22:56:48;1.80;99.90
19516;DHT22;9901;47.448;7.692;2023-03-05T22:59:15;1.80;99.90
19516;DHT22;9901;47.448;7.692;2023-03-05T23:01:47;1.70;99.90
19516;DHT22;9901;47.448;7.692;2023-03-05T23:04:50;1.70;99.90
19516;DHT22;9901;47.448;7.692;2023-03-05T23:07:28;1.70;99.90
19516;DHT22;9901;47.448;7.692;2023-03-05T23:10:00;1.70;99.90
19516;DHT22;9901;47.448;7.692;2023-03-05T23:12:43;1.70;99.90
19516;DHT22;9901;47.448;7.692;2023-03-05T23:15:15;1.70;99.90
19516;DHT22;9901;47.448;7.692;2023-03-05T23:17:41;1.80;99.90
19516;DHT22;9901;47.448;7.692;2023-03-05T23:20:14;1.70;99.90
19516;DHT22;9901;47.448;7.692;2023-03-05T23:22:47;1.60;99.90
19516;DHT22;9901;47.448;7.692;2023-03-05T23:25:15;1.70;99.90
19516;DHT22;9901;47.448;7.692;2023-03-05T23:27:41;1.60;99.90
19516;DHT22;9901;47.448;7.692;2023-03-05T23:30:17;1.50;99.90
19516;DHT22;9901;47.448;7.692;2023-03-05T23:33:06;1.60;99.90
19516;DHT22;9901;47.448;7.692;2023-03-05T23:35:39;1.60;99.90
19516;DHT22;9901;47.448;7.692;2023-03-05T23:38:11;1.60;99.90
19516;DHT22;9901;47.448;7.692;2023-03-05T23:40:44;1.60;99.90
19516;DHT22;9901;47.448;7.692;2023-03-05T23:43:17;1.80;99.90
19516;DHT22;9901;47.448;7.692;2023-03-05T23:45:51;1.60;99.90
19516;DHT22;9901;47.448;7.692;2023-03-05T23:48:24;1.60;99.90
19516;DHT22;9901;47.448;7.692;2023-03-05T23:50:52;1.50;99.90
19516;DHT22;9901;47.448;7.692;2023-03-05T23:53:28;1.60;99.90
19516;DHT22;9901;47.448;7.692;2023-03-05T23:55:55;1.70;99.90
19516;DHT22;9901;47.448;7.692;2023-03-05T23:58:21;1.60;99.90
